Time;durP1;ratioP1;P1;durP2;ratioP2;P2;SDS_P1;SDS_P2;PMS_P1;PMS_P2;Temp;Humidity;BMP_temperature;BMP_pressure;BME280_temperature;BME280_humidity;BME280_pressure;Samples;Min_cycle;Max_cycle;Signal;HPM_P1;HPM_P2
2021/07/16 00:00:35;;;;;;;1.75;1.65;;;25.30;65.80;;;;;;5050078;28;20490;-74
2021/07/16 00:03:00;;;;;;;2.20;2.05;;;25.30;65.70;;;;;;5053784;28;20183;-74
2021/07/16 00:05:26;;;;;;;1.85;1.77;;;25.20;65.50;;;;;;5055370;28;20249;-74
2021/07/16 00:07:52;;;;;;;1.80;1.80;;;25.30;65.50;;;;;;5056269;28;20183;-73
2021/07/16 00:10:20;;;;;;;1.80;1.70;;;25.30;65.40;;;;;;5054497;28;20195;-73
2021/07/16 00:12:48;;;;;;;2.30;2.08;;;25.30;66.00;;;;;;5055653;28;20180;-74
2021/07/16 00:15:15;;;;;;;1.60;1.50;;;25.20;66.10;;;;;;5054553;28;20203;-74
2021/07/16 00:17:41;;;;;;;7.40;1.92;;;25.20;65.40;;;;;;5054558;28;20190;-74
2021/07/16 00:20:08;;;;;;;2.38;1.83;;;25.20;64.90;;;;;;5055010;28;20707;-74
2021/07/16 00:22:34;;;;;;;1.38;1.33;;;25.10;65.10;;;;;;5054145;28;20180;-74
2021/07/16 00:25:00;;;;;;;6.22;1.80;;;25.10;65.30;;;;;;5052215;28;20176;-74
2021/07/16 00:27:26;;;;;;;1.50;1.40;;;25.10;65.10;;;;;;5052482;28;20233;-74
2021/07/16 00:29:52;;;;;;;3.42;1.90;;;25.10;65.10;;;;;;5055115;28;20179;-74
2021/07/16 00:32:18;;;;;;;1.63;1.40;;;25.10;65.00;;;;;;5050156;28;20621;-74
2021/07/16 00:34:43;;;;;;;1.52;1.52;;;25.00;65.00;;;;;;5050332;28;20184;-75
2021/07/16 00:37:09;;;;;;;4.75;1.52;;;25.00;65.30;;;;;;5050371;28;20215;-74
2021/07/16 00:39:37;;;;;;;1.60;1.40;;;25.00;65.30;;;;;;5052436;28;20566;-74
2021/07/16 00:42:03;;;;;;;3.75;1.77;;;25.00;65.00;;;;;;5051388;28;20671;-74
2021/07/16 00:44:34;;;;;;;1.83;1.83;;;25.00;65.30;;;;;;5049558;28;20532;-74
2021/07/16 00:46:59;;;;;;;1.48;1.48;;;25.00;65.00;;;;;;5050706;28;20183;-74
2021/07/16 00:49:25;;;;;;;2.40;1.75;;;25.00;65.10;;;;;;5054204;28;20183;-75
2021/07/16 00:51:51;;;;;;;1.50;1.48;;;25.00;65.00;;;;;;5050897;28;20182;-74
2021/07/16 00:54:17;;;;;;;1.75;1.75;;;24.90;65.00;;;;;;5051854;28;20175;-75
2021/07/16 00:56:42;;;;;;;5.28;1.52;;;24.90;65.00;;;;;;5048987;28;20626;-74
2021/07/16 00:59:13;;;;;;;2.63;2.38;;;24.80;65.00;;;;;;5055272;28;20226;-74
2021/07/16 01:01:40;;;;;;;3.78;2.88;;;24.80;66.40;;;;;;5050438;28;20190;-74
2021/07/16 01:04:06;;;;;;;2.80;2.22;;;24.90;66.70;;;;;;5055966;28;20601;-75
2021/07/16 01:06:32;;;;;;;3.00;2.80;;;24.80;66.30;;;;;;5052533;28;20266;-74
2021/07/16 01:08:57;;;;;;;7.10;2.90;;;24.80;66.40;;;;;;5056015;28;20495;-74
2021/07/16 01:11:23;;;;;;;2.45;2.35;;;24.80;66.50;;;;;;5052653;28;20179;-73
2021/07/16 01:13:49;;;;;;;3.45;3.05;;;24.80;66.40;;;;;;5056079;28;20698;-73
2021/07/16 01:16:15;;;;;;;3.67;3.40;;;24.70;68.10;;;;;;5052686;28;20719;-73
2021/07/16 01:18:41;;;;;;;4.03;3.72;;;24.70;68.40;;;;;;5056499;28;20182;-73
2021/07/16 01:21:07;;;;;;;4.95;4.10;;;24.70;68.90;;;;;;5052030;28;20187;-73
2021/07/16 01:23:34;;;;;;;4.95;4.50;;;24.60;69.90;;;;;;5056654;28;20663;-73
2021/07/16 01:26:00;;;;;;;8.05;4.70;;;24.60;72.00;;;;;;5046805;28;20191;-73
2021/07/16 01:28:26;;;;;;;7.30;4.13;;;24.40;71.30;;;;;;5057208;28;20687;-73
2021/07/16 01:30:53;;;;;;;9.75;4.43;;;24.40;72.60;;;;;;5052160;28;20179;-73
2021/07/16 01:33:20;;;;;;;7.90;4.65;;;24.30;72.40;;;;;;5051599;28;20175;-73
2021/07/16 01:35:46;;;;;;;4.22;3.92;;;24.20;72.50;;;;;;5047847;28;20663;-73
2021/07/16 01:38:11;;;;;;;6.25;4.30;;;24.10;72.80;;;;;;5052961;28;20183;-74
2021/07/16 01:40:39;;;;;;;5.25;4.70;;;24.10;73.80;;;;;;5050046;28;20184;-73
2021/07/16 01:43:07;;;;;;;4.35;3.97;;;23.90;75.00;;;;;;5048237;28;20226;-74
2021/07/16 01:45:38;;;;;;;7.70;4.97;;;23.80;74.40;;;;;;5049656;28;20207;-73
2021/07/16 01:48:07;;;;;;;7.13;4.32;;;23.80;73.80;;;;;;5053106;28;20182;-74
2021/07/16 01:50:35;;;;;;;8.88;4.47;;;23.80;73.70;;;;;;5049392;28;20184;-74
2021/07/16 01:53:01;;;;;;;4.13;3.92;;;23.70;74.00;;;;;;5053504;28;20189;-74
2021/07/16 01:55:31;;;;;;;4.88;4.50;;;23.70;74.10;;;;;;5046631;28;20235;-74
2021/07/16 01:57:58;;;;;;;4.90;4.50;;;23.70;74.10;;;;;;5046273;28;20183;-74
2021/07/16 02:00:30;;;;;;;4.90;4.38;;;23.70;74.10;;;;;;5051273;28;20180;-74
2021/07/16 02:03:01;;;;;;;7.22;4.45;;;23.70;74.40;;;;;;5052090;28;20434;-73
2021/07/16 02:05:28;;;;;;;5.03;4.35;;;23.70;74.40;;;;;;5052882;28;20187;-74
2021/07/16 02:07:58;;;;;;;8.70;5.00;;;23.70;74.40;;;;;;5053899;28;20179;-74
2021/07/16 02:10:27;;;;;;;4.93;4.63;;;23.60;74.60;;;;;;5053299;28;20703;-73
2021/07/16 02:12:54;;;;;;;6.40;4.85;;;23.60;74.80;;;;;;5052655;28;20188;-74
2021/07/16 02:15:22;;;;;;;4.72;4.32;;;23.60;74.90;;;;;;5054378;28;20191;-75
2021/07/16 02:17:48;;;;;;;5.13;4.63;;;23.50;75.20;;;;;;5052126;28;20720;-74
2021/07/16 02:20:35;;;;;;;4.60;4.30;;;23.50;75.10;;;;;;5054357;28;20183;-74
2021/07/16 02:23:07;;;;;;;4.97;4.53;;;23.50;75.40;;;;;;5044437;28;20187;-74
2021/07/16 02:25:33;;;;;;;5.32;4.45;;;23.50;75.10;;;;;;5049703;28;20207;-74
2021/07/16 02:28:04;;;;;;;4.47;4.10;;;23.40;75.20;;;;;;5051774;28;20550;-74
2021/07/16 02:30:30;;;;;;;4.80;4.40;;;23.40;75.00;;;;;;5054663;28;20728;-74
2021/07/16 02:32:58;;;;;;;4.65;4.32;;;23.30;75.40;;;;;;5050701;28;20398;-75
2021/07/16 02:35:25;;;;;;;4.18;3.97;;;23.20;75.80;;;;;;5052959;28;20630;-74
2021/07/16 02:37:51;;;;;;;6.70;5.05;;;23.20;75.50;;;;;;5054937;28;20799;-74
2021/07/16 02:40:18;;;;;;;4.45;4.05;;;23.20;75.80;;;;;;5057326;28;20218;-74
2021/07/16 02:42:44;;;;;;;8.25;4.70;;;23.10;76.50;;;;;;5054092;28;20325;-75
2021/07/16 02:45:15;;;;;;;10.45;4.43;;;23.10;75.70;;;;;;5053986;28;20278;-73
2021/07/16 02:47:41;;;;;;;4.40;4.00;;;23.10;75.70;;;;;;5056185;28;20187;-73
2021/07/16 02:50:09;;;;;;;5.05;4.28;;;23.10;75.80;;;;;;5055525;28;20237;-74
2021/07/16 02:52:35;;;;;;;4.90;4.50;;;23.10;75.80;;;;;;5056381;28;20266;-74
2021/07/16 02:55:02;;;;;;;4.65;4.25;;;23.10;75.80;;;;;;5053652;28;20741;-74
2021/07/16 02:57:28;;;;;;;4.70;4.30;;;23.00;75.90;;;;;;5052481;28;20661;-74
2021/07/16 02:59:54;;;;;;;4.97;4.57;;;23.00;76.30;;;;;;5056819;28;20241;-74
2021/07/16 03:02:19;;;;;;;5.43;3.42;;;23.00;76.60;;;;;;5054984;28;20645;-74
2021/07/16 03:04:46;;;;;;;4.57;3.28;;;23.00;75.60;;;;;;5056806;28;20187;-74
2021/07/16 03:07:12;;;;;;;3.25;3.00;;;23.00;74.60;;;;;;5056217;28;20191;-74
2021/07/16 03:09:38;;;;;;;2.88;2.67;;;22.90;74.00;;;;;;5056527;28;20270;-74
2021/07/16 03:12:04;;;;;;;3.40;2.97;;;23.00;73.60;;;;;;5057817;28;20270;-74
2021/07/16 03:14:30;;;;;;;2.78;2.67;;;22.90;74.20;;;;;;5055514;28;20271;-74
2021/07/16 03:16:56;;;;;;;3.35;3.13;;;22.90;73.70;;;;;;5057776;28;20290;-74
2021/07/16 03:19:22;;;;;;;4.40;3.63;;;22.90;74.40;;;;;;5055491;28;20669;-74
2021/07/16 03:21:48;;;;;;;4.15;3.50;;;22.90;74.90;;;;;;5057575;28;20185;-73
2021/07/16 03:24:14;;;;;;;3.75;2.97;;;22.90;75.10;;;;;;5055469;28;20697;-74
2021/07/16 03:26:41;;;;;;;4.93;3.30;;;22.90;75.10;;;;;;5052582;28;20229;-74
2021/07/16 03:29:07;;;;;;;3.70;3.50;;;22.90;75.10;;;;;;5055194;28;20673;-74
2021/07/16 03:31:32;;;;;;;5.68;3.70;;;22.80;75.20;;;;;;5055825;28;20187;-74
2021/07/16 03:33:58;;;;;;;3.25;2.97;;;22.80;75.10;;;;;;5051823;28;20179;-74
2021/07/16 03:36:24;;;;;;;3.00;2.80;;;22.80;75.00;;;;;;5050672;28;20203;-74
2021/07/16 03:38:52;;;;;;;3.25;3.00;;;22.80;74.30;;;;;;5052366;28;20219;-74
2021/07/16 03:44:02;;;;;;;3.25;2.70;;;22.80;73.80;;;;;;5046701;28;20271;-74
2021/07/16 03:46:27;;;;;;;3.13;2.88;;;22.80;74.00;;;;;;5053566;28;20262;-74
2021/07/16 03:48:55;;;;;;;2.92;2.75;;;22.80;74.00;;;;;;5051229;28;20176;-74
2021/07/16 03:51:22;;;;;;;3.72;3.00;;;22.80;73.90;;;;;;5053746;28;20179;-74
2021/07/16 03:53:47;;;;;;;3.40;3.10;;;22.90;73.90;;;;;;5050231;28;20212;-74
2021/07/16 03:56:13;;;;;;;3.00;2.90;;;22.90;74.00;;;;;;5055179;28;20741;-74
2021/07/16 03:58:39;;;;;;;3.25;2.95;;;22.90;74.00;;;;;;5052678;28;20967;-74
2021/07/16 04:01:04;;;;;;;2.95;2.85;;;22.90;73.90;;;;;;5054198;28;20171;-74
2021/07/16 04:03:30;;;;;;;3.42;2.83;;;22.90;73.70;;;;;;5052403;28;20263;-73
2021/07/16 04:05:56;;;;;;;3.17;3.03;;;22.90;73.60;;;;;;5056521;28;20190;-74
2021/07/16 04:08:23;;;;;;;3.65;3.45;;;23.00;73.40;;;;;;5052001;28;20175;-74
2021/07/16 04:10:49;;;;;;;3.35;2.78;;;23.00;73.40;;;;;;5055448;28;20183;-74
2021/07/16 04:13:15;;;;;;;3.38;3.17;;;23.00;73.70;;;;;;5048823;28;20183;-74
2021/07/16 04:15:42;;;;;;;3.08;2.97;;;23.00;73.80;;;;;;5056177;28;20221;-73
2021/07/16 04:18:08;;;;;;;3.28;2.90;;;23.00;73.70;;;;;;5051586;28;20274;-73
2021/07/16 04:20:39;;;;;;;9.07;3.28;;;23.10;73.70;;;;;;5055500;28;20183;-75
2021/07/16 04:23:05;;;;;;;5.53;2.90;;;23.10;73.70;;;;;;5052088;28;20204;-75
2021/07/16 04:25:31;;;;;;;6.80;2.88;;;23.10;73.90;;;;;;5051434;28;20246;-74
2021/07/16 04:27:57;;;;;;;3.20;3.00;;;23.10;74.00;;;;;;5051487;28;20278;-75
2021/07/16 04:30:24;;;;;;;3.55;3.35;;;23.20;74.00;;;;;;5049774;28;20226;-75
2021/07/16 04:32:53;;;;;;;7.07;3.25;;;23.20;74.00;;;;;;5048427;28;20237;-75
2021/07/16 04:35:18;;;;;;;4.65;3.00;;;23.20;74.00;;;;;;5050296;28;20180;-75
2021/07/16 04:37:45;;;;;;;8.32;3.17;;;23.20;74.00;;;;;;5050817;28;20187;-75
2021/07/16 04:40:15;;;;;;;3.40;3.03;;;23.20;74.00;;;;;;5053767;28;20254;-75
2021/07/16 04:42:41;;;;;;;2.88;2.72;;;23.30;73.80;;;;;;5050520;28;20711;-73
2021/07/16 04:45:08;;;;;;;3.40;3.20;;;23.30;73.70;;;;;;5050393;28;20196;-74
2021/07/16 04:47:33;;;;;;;4.68;3.33;;;23.30;73.60;;;;;;5051238;28;20278;-74
2021/07/16 04:49:59;;;;;;;2.60;2.40;;;23.40;73.70;;;;;;5052329;28;20258;-74
2021/07/16 04:52:25;;;;;;;3.25;2.92;;;23.40;73.60;;;;;;5050838;28;20187;-75
2021/07/16 04:54:51;;;;;;;3.58;3.28;;;23.40;73.60;;;;;;5051523;28;20237;-73
2021/07/16 04:57:16;;;;;;;3.13;2.90;;;23.50;73.30;;;;;;5047490;28;20257;-74
2021/07/16 04:59:42;;;;;;;3.78;2.72;;;23.50;73.30;;;;;;5055749;28;20191;-73
2021/07/16 05:02:08;;;;;;;3.58;3.28;;;23.50;73.30;;;;;;5049871;28;20180;-74
2021/07/16 05:04:34;;;;;;;2.72;2.63;;;23.60;73.30;;;;;;5056310;28;20250;-74
2021/07/16 05:07:00;;;;;;;3.22;2.83;;;23.60;72.90;;;;;;5053146;28;20268;-74
2021/07/16 05:09:25;;;;;;;3.50;3.00;;;23.70;72.80;;;;;;5055596;28;20267;-74
2021/07/16 05:11:51;;;;;;;2.85;2.83;;;23.70;72.60;;;;;;5052183;28;20207;-74
2021/07/16 05:14:18;;;;;;;3.35;2.97;;;23.70;72.40;;;;;;5055315;28;20179;-73
2021/07/16 05:16:43;;;;;;;4.40;3.30;;;23.80;72.40;;;;;;5052344;28;20211;-74
2021/07/16 05:19:09;;;;;;;3.40;3.10;;;23.80;72.30;;;;;;5054785;28;20196;-74
2021/07/16 05:21:35;;;;;;;3.22;3.03;;;23.90;72.40;;;;;;5051603;28;20210;-74
2021/07/16 05:24:01;;;;;;;3.75;3.22;;;23.90;72.30;;;;;;5054540;28;20180;-75
2021/07/16 05:26:27;;;;;;;3.35;3.15;;;24.00;72.10;;;;;;5047398;28;20280;-74
2021/07/16 05:28:53;;;;;;;3.20;2.90;;;24.00;72.30;;;;;;5054112;28;20217;-74
2021/07/16 05:31:19;;;;;;;4.03;3.25;;;24.10;72.20;;;;;;5051766;28;20214;-74
2021/07/16 05:33:48;;;;;;;3.63;3.38;;;24.10;72.10;;;;;;5050301;28;20198;-74
2021/07/16 05:36:14;;;;;;;7.55;3.95;;;24.20;72.80;;;;;;5047228;28;20230;-75
2021/07/16 05:38:40;;;;;;;5.22;3.60;;;24.20;72.20;;;;;;5051652;28;20718;-74
2021/07/16 05:41:07;;;;;;;3.92;3.67;;;24.20;72.20;;;;;;5051029;28;20255;-74
2021/07/16 05:43:34;;;;;;;3.70;3.47;;;24.20;72.20;;;;;;5048689;28;20188;-74
2021/07/16 05:46:00;;;;;;;3.78;3.40;;;24.30;72.10;;;;;;5051056;28;20302;-74
2021/07/16 05:48:26;;;;;;;4.57;3.53;;;24.40;71.90;;;;;;5051093;28;20819;-74
2021/07/16 05:50:52;;;;;;;5.00;3.20;;;24.40;72.00;;;;;;5050641;28;20977;-74
2021/07/16 05:53:18;;;;;;;3.30;3.00;;;24.50;72.00;;;;;;5052362;28;20213;-74
2021/07/16 05:55:44;;;;;;;3.95;3.00;;;24.60;72.80;;;;;;5047505;28;20294;-74
2021/07/16 05:58:10;;;;;;;3.58;3.35;;;24.60;72.10;;;;;;5054282;28;20194;-74
2021/07/16 06:00:36;;;;;;;3.33;3.13;;;24.70;72.10;;;;;;5052270;28;20176;-74
2021/07/16 06:03:03;;;;;;;3.63;3.33;;;24.70;71.90;;;;;;5050573;28;20179;-74
2021/07/16 06:05:29;;;;;;;4.22;3.08;;;24.80;72.00;;;;;;5052041;28;20225;-74
2021/07/16 06:07:54;;;;;;;2.60;2.47;;;24.80;72.00;;;;;;5052943;28;20180;-75
2021/07/16 06:10:20;;;;;;;4.40;3.60;;;24.90;72.00;;;;;;5052348;28;20661;-75
2021/07/16 06:12:46;;;;;;;5.00;3.17;;;24.90;71.70;;;;;;5052914;28;20552;-73
2021/07/16 06:15:12;;;;;;;6.00;3.30;;;25.00;71.30;;;;;;5052594;28;20245;-74
2021/07/16 06:17:41;;;;;;;3.45;2.45;;;25.00;71.10;;;;;;5053046;28;20230;-74
2021/07/16 06:20:09;;;;;;;5.63;2.95;;;25.00;71.40;;;;;;5053933;28;20191;-74
2021/07/16 06:22:35;;;;;;;3.95;2.78;;;25.10;71.10;;;;;;5053136;28;20184;-74
2021/07/16 06:25:01;;;;;;;4.25;2.55;;;25.10;71.00;;;;;;5050972;28;20184;-73
2021/07/16 06:27:27;;;;;;;4.07;3.10;;;25.10;71.10;;;;;;5050878;28;20192;-75
2021/07/16 06:29:53;;;;;;;3.05;2.90;;;25.20;71.50;;;;;;5054456;28;20220;-75
2021/07/16 06:32:19;;;;;;;2.33;2.33;;;25.20;71.80;;;;;;5048570;28;20176;-74
2021/07/16 06:34:44;;;;;;;3.53;3.20;;;25.20;71.00;;;;;;5048954;28;20184;-74
2021/07/16 06:37:10;;;;;;;4.40;3.08;;;25.30;71.30;;;;;;5048636;28;20688;-73
2021/07/16 06:39:36;;;;;;;4.78;3.15;;;25.30;71.40;;;;;;5050564;28;20216;-74
2021/07/16 06:42:02;;;;;;;3.00;2.80;;;25.30;71.00;;;;;;5049473;28;20184;-74
2021/07/16 06:44:29;;;;;;;3.30;2.97;;;25.40;70.90;;;;;;5047792;28;20564;-74
2021/07/16 06:46:55;;;;;;;4.97;2.47;;;25.40;71.00;;;;;;5049681;28;20282;-74
2021/07/16 06:49:26;;;;;;;3.08;2.97;;;25.50;71.40;;;;;;5051125;28;20187;-74
2021/07/16 06:51:52;;;;;;;6.38;2.53;;;25.60;71.30;;;;;;5048580;28;20696;-74
2021/07/16 06:54:17;;;;;;;2.60;2.40;;;25.60;70.70;;;;;;5049054;28;20712;-74
2021/07/16 06:56:43;;;;;;;3.00;2.80;;;25.70;70.30;;;;;;5051184;28;20229;-73
2021/07/16 06:59:12;;;;;;;5.20;2.58;;;25.70;70.60;;;;;;5052606;28;20580;-73
2021/07/16 07:01:38;;;;;;;3.20;2.63;;;25.80;70.20;;;;;;5046292;28;20206;-73
2021/07/16 07:04:05;;;;;;;2.40;2.30;;;25.90;70.30;;;;;;5053059;28;20179;-73
2021/07/16 07:06:31;;;;;;;2.67;2.58;;;26.00;70.40;;;;;;5051129;28;20198;-74
2021/07/16 07:08:57;;;;;;;2.55;2.45;;;26.10;70.00;;;;;;5053875;28;20576;-74
2021/07/16 07:11:23;;;;;;;2.00;2.00;;;26.20;70.00;;;;;;5050875;28;20188;-74
2021/07/16 07:13:48;;;;;;;2.85;2.65;;;26.30;69.80;;;;;;5053671;28;20214;-73
2021/07/16 07:16:16;;;;;;;5.15;2.70;;;26.40;69.30;;;;;;5050963;28;20280;-74
2021/07/16 07:18:42;;;;;;;6.43;2.78;;;26.50;69.00;;;;;;5053017;28;20297;-74
2021/07/16 07:21:08;;;;;;;3.53;2.60;;;26.60;69.10;;;;;;5054503;28;20325;-74
2021/07/16 07:23:34;;;;;;;2.78;2.67;;;26.70;68.70;;;;;;5058451;28;20741;-74
2021/07/16 07:25:59;;;;;;;2.30;2.20;;;26.80;69.00;;;;;;5049506;28;20190;-74
2021/07/16 07:28:26;;;;;;;6.72;2.63;;;26.80;68.90;;;;;;5058756;28;20179;-75
2021/07/16 07:30:52;;;;;;;2.60;2.50;;;26.90;67.70;;;;;;5054803;28;20176;-75
2021/07/16 07:33:17;;;;;;;2.65;2.55;;;26.90;66.60;;;;;;5053150;28;20576;-75
2021/07/16 07:35:43;;;;;;;2.88;2.67;;;26.90;67.50;;;;;;5049087;28;20704;-74
2021/07/16 07:38:09;;;;;;;3.83;2.83;;;26.90;67.80;;;;;;5056072;28;20788;-75
2021/07/16 07:40:35;;;;;;;3.38;3.08;;;27.00;68.40;;;;;;5053253;28;20234;-74
2021/07/16 07:43:03;;;;;;;3.22;3.05;;;27.10;68.40;;;;;;5052273;28;20187;-75
2021/07/16 07:45:29;;;;;;;7.05;3.28;;;27.20;68.30;;;;;;5051144;28;20187;-74
2021/07/16 07:47:55;;;;;;;3.63;2.95;;;27.30;68.40;;;;;;5056264;28;20175;-73
2021/07/16 07:50:22;;;;;;;5.65;2.80;;;27.40;68.30;;;;;;5052131;28;20270;-74
2021/07/16 07:52:49;;;;;;;4.97;3.15;;;27.50;68.90;;;;;;5054563;28;20216;-74
2021/07/16 07:55:17;;;;;;;9.65;3.30;;;27.60;68.40;;;;;;5050132;28;20215;-75
2021/07/16 07:57:43;;;;;;;5.82;3.03;;;27.70;68.40;;;;;;5057245;28;20445;-75
2021/07/16 08:00:14;;;;;;;3.45;3.17;;;27.80;68.40;;;;;;5052881;28;20180;-75
2021/07/16 08:02:40;;;;;;;3.17;3.08;;;27.80;67.90;;;;;;5054486;28;20531;-75
2021/07/16 08:05:07;;;;;;;5.22;3.22;;;28.00;67.70;;;;;;5053210;28;20184;-75
2021/07/16 08:07:33;;;;;;;6.20;3.20;;;28.00;66.80;;;;;;5057794;28;20194;-74
2021/07/16 08:09:59;;;;;;;4.05;2.92;;;28.00;67.80;;;;;;5053123;28;20226;-74
2021/07/16 08:12:24;;;;;;;3.25;3.05;;;28.00;67.20;;;;;;5057869;28;20182;-74
2021/07/16 08:14:50;;;;;;;2.88;2.78;;;28.10;67.20;;;;;;5052859;28;20210;-74
2021/07/16 08:17:16;;;;;;;5.15;2.75;;;28.10;66.40;;;;;;5058354;28;20268;-74
2021/07/16 08:19:42;;;;;;;5.30;2.90;;;28.20;66.10;;;;;;5053128;28;20180;-74
2021/07/16 08:22:08;;;;;;;4.38;2.83;;;28.20;66.40;;;;;;5058146;28;20189;-73
2021/07/16 08:24:34;;;;;;;4.78;3.13;;;28.30;66.70;;;;;;5053200;28;20682;-73
2021/07/16 08:27:00;;;;;;;3.25;3.10;;;28.40;66.70;;;;;;5053059;28;20234;-73
2021/07/16 08:29:25;;;;;;;2.90;2.70;;;28.50;66.70;;;;;;5052658;28;20190;-75
2021/07/16 08:31:51;;;;;;;3.67;3.38;;;28.60;65.90;;;;;;5054073;28;20206;-74
2021/07/16 08:34:17;;;;;;;3.58;3.25;;;28.70;66.30;;;;;;5050764;28;20176;-75
2021/07/16 08:36:44;;;;;;;3.08;2.97;;;28.80;66.50;;;;;;5050526;28;20210;-75
2021/07/16 08:39:10;;;;;;;3.78;3.47;;;28.80;65.50;;;;;;5050733;28;20603;-75
2021/07/16 08:41:36;;;;;;;3.45;3.33;;;28.80;65.50;;;;;;5054058;28;20638;-75
2021/07/16 08:44:02;;;;;;;3.58;3.28;;;28.90;64.70;;;;;;5047382;28;20176;-75
2021/07/16 08:46:28;;;;;;;3.30;3.10;;;28.90;64.90;;;;;;5054374;28;20191;-75
2021/07/16 08:48:58;;;;;;;4.07;3.67;;;28.80;64.90;;;;;;5051209;28;20196;-75
2021/07/16 08:51:26;;;;;;;7.45;3.53;;;28.80;65.20;;;;;;5054381;28;20175;-75
2021/07/16 08:53:54;;;;;;;3.47;3.30;;;28.90;65.70;;;;;;5049146;28;20184;-75
2021/07/16 08:56:22;;;;;;;3.35;3.20;;;29.10;64.80;;;;;;5042282;28;20308;-75
2021/07/16 08:58:48;;;;;;;5.05;3.95;;;29.20;65.60;;;;;;5053014;28;20184;-75
2021/07/16 09:01:14;;;;;;;3.90;3.70;;;29.30;65.60;;;;;;5054145;28;20269;-75
2021/07/16 09:04:00;;;;;;;3.85;3.65;;;29.30;63.90;;;;;;5053107;28;20183;-75
2021/07/16 09:06:46;;;;;;;4.35;3.97;;;29.40;64.70;;;;;;5054150;28;20183;-75
2021/07/16 09:09:13;;;;;;;7.25;4.28;;;29.50;63.80;;;;;;5057866;28;20171;-75
2021/07/16 09:11:40;;;;;;;3.83;3.63;;;29.60;63.90;;;;;;5052373;28;20262;-75
2021/07/16 09:14:06;;;;;;;4.22;3.90;;;29.60;63.80;;;;;;5057249;28;20183;-75
2021/07/16 09:16:32;;;;;;;4.03;3.63;;;29.70;63.90;;;;;;5052653;28;20298;-75
2021/07/16 09:18:58;;;;;;;9.50;3.65;;;29.80;63.80;;;;;;5057038;28;20682;-74
2021/07/16 09:21:23;;;;;;;4.22;3.58;;;29.80;63.10;;;;;;5052079;28;20707;-74
2021/07/16 09:23:49;;;;;;;4.25;4.05;;;29.90;63.50;;;;;;5056560;28;20629;-74
2021/07/16 09:26:27;;;;;;;4.25;4.15;;;30.00;62.80;;;;;;5046510;28;20676;-74
2021/07/16 09:28:55;;;;;;;5.50;4.25;;;30.00;63.20;;;;;;5055274;28;20179;-74
2021/07/16 09:31:30;;;;;;;4.32;4.03;;;30.10;63.50;;;;;;5052466;28;20731;-74
2021/07/16 09:33:59;;;;;;;4.60;4.15;;;30.30;63.90;;;;;;5050232;28;20201;-74
2021/07/16 09:36:33;;;;;;;6.00;3.97;;;30.50;63.90;;;;;;5048554;28;20716;-75
2021/07/16 09:39:09;;;;;;;5.57;3.65;;;30.60;63.10;;;;;;5048838;28;20207;-75
2021/07/16 09:41:56;;;;;;;4.93;4.40;;;30.80;63.00;;;;;;5052709;28;20174;-74
2021/07/16 09:44:29;;;;;;;6.35;4.55;;;31.00;62.80;;;;;;5045682;28;20191;-74
2021/07/16 09:47:17;;;;;;;4.82;4.53;;;31.20;62.10;;;;;;5051513;28;20657;-74
2021/07/16 09:49:45;;;;;;;4.18;3.88;;;31.30;61.90;;;;;;5053248;28;20663;-74
2021/07/16 09:52:18;;;;;;;4.57;4.38;;;31.50;61.70;;;;;;5049227;28;20253;-74
2021/07/16 09:55:08;;;;;;;6.05;4.45;;;31.60;62.20;;;;;;5047500;28;20186;-74
2021/07/16 09:57:45;;;;;;;4.68;4.28;;;31.80;61.40;;;;;;5049699;28;20214;-75
2021/07/16 10:00:11;;;;;;;5.03;4.70;;;31.90;61.10;;;;;;5043365;28;20179;-75
2021/07/16 10:02:37;;;;;;;5.07;4.57;;;32.10;60.60;;;;;;5053459;28;20174;-75
2021/07/16 10:05:03;;;;;;;6.05;4.55;;;32.20;60.20;;;;;;5051334;28;20190;-75
2021/07/16 10:07:29;;;;;;;5.82;4.88;;;32.30;60.70;;;;;;5056480;28;20655;-75
2021/07/16 10:09:55;;;;;;;5.10;4.70;;;32.40;60.70;;;;;;5051197;28;20184;-75
2021/07/16 10:12:20;;;;;;;4.93;4.43;;;32.50;60.20;;;;;;5056246;28;20257;-75
2021/07/16 10:14:47;;;;;;;4.72;4.43;;;32.60;60.20;;;;;;5051290;28;20270;-75
2021/07/16 10:17:14;;;;;;;5.13;4.82;;;32.80;60.40;;;;;;5055880;28;20248;-75
2021/07/16 10:19:40;;;;;;;4.85;4.68;;;32.90;59.30;;;;;;5050825;28;20183;-73
2021/07/16 10:22:06;;;;;;;5.07;4.68;;;32.90;59.20;;;;;;5053895;28;20598;-74
2021/07/16 10:24:34;;;;;;;5.15;4.80;;;33.00;59.30;;;;;;5050598;28;20223;-74
2021/07/16 10:27:02;;;;;;;11.57;4.57;;;33.10;59.30;;;;;;5045774;28;20216;-74
2021/07/16 10:32:43;;;;;;;5.00;4.63;;;33.70;59.40;;;;;;5048517;28;20240;-74
2021/07/16 10:35:13;;;;;;;4.90;4.60;;;34.10;58.40;;;;;;5048437;28;20182;-74
2021/07/16 10:37:39;;;;;;;5.88;4.78;;;34.40;57.10;;;;;;5048615;28;20207;-74
2021/07/16 10:40:05;;;;;;;5.13;4.40;;;34.60;57.60;;;;;;5051570;28;20178;-75
2021/07/16 10:42:32;;;;;;;8.80;4.53;;;34.90;57.30;;;;;;5048499;28;20179;-74
2021/07/16 10:45:00;;;;;;;5.18;4.90;;;35.20;56.90;;;;;;5048297;28;20178;-74
2021/07/16 10:47:40;;;;;;;7.00;4.90;;;35.50;55.90;;;;;;5048048;28;20187;-74
2021/07/16 10:50:12;;;;;;;10.90;4.97;;;35.80;54.80;;;;;;5047974;28;20217;-74
2021/07/16 10:52:45;;;;;;;5.13;4.80;;;36.30;55.10;;;;;;5051209;28;20638;-75
2021/07/16 10:55:13;;;;;;;4.80;4.60;;;37.00;53.40;;;;;;5051656;28;20179;-75
2021/07/16 10:57:43;;;;;;;4.90;4.60;;;37.50;53.40;;;;;;5053506;28;20206;-75
2021/07/16 11:00:33;;;;;;;4.82;4.45;;;37.50;52.40;;;;;;5054590;28;20198;-75
2021/07/16 11:03:44;;;;;;;4.45;4.10;;;37.50;52.10;;;;;;5054325;28;20179;-74
2021/07/16 11:06:12;;;;;;;7.63;5.00;;;37.60;52.20;;;;;;5029268;28;20229;-75
2021/07/16 11:08:39;;;;;;;5.72;5.22;;;37.50;52.30;;;;;;5020844;28;20192;-74
2021/07/16 11:11:05;;;;;;;5.47;5.15;;;37.30;52.80;;;;;;5018160;28;20669;-75
2021/07/16 11:13:54;;;;;;;5.53;4.90;;;37.30;53.00;;;;;;5024976;28;20667;-75
2021/07/16 11:16:32;;;;;;;5.05;4.85;;;37.40;52.20;;;;;;5015875;28;20267;-75
2021/07/16 11:19:15;;;;;;;5.03;4.68;;;37.70;51.40;;;;;;5024402;28;20257;-75
2021/07/16 11:21:47;;;;;;;4.50;4.30;;;38.00;52.20;;;;;;5020400;28;20219;-75
2021/07/16 11:24:34;;;;;;;8.65;4.82;;;38.40;52.60;;;;;;5015342;28;20271;-75
2021/07/16 11:27:18;;;;;;;7.88;5.03;;;38.60;49.80;;;;;;5025271;28;20199;-75
2021/07/16 11:29:46;;;;;;;5.43;5.13;;;38.50;51.50;;;;;;5019342;28;20598;-74
2021/07/16 11:32:27;;;;;;;4.93;4.63;;;38.80;50.60;;;;;;5021267;28;20175;-74
2021/07/16 11:34:58;;;;;;;4.97;4.57;;;39.20;50.20;;;;;;5013513;28;20430;-74
2021/07/16 11:37:25;;;;;;;4.20;4.07;;;39.50;50.70;;;;;;5020232;28;20227;-73
2021/07/16 11:40:16;;;;;;;4.25;4.05;;;39.70;49.80;;;;;;5033580;28;20179;-75
2021/07/16 11:42:53;;;;;;;4.93;4.60;;;39.70;48.50;;;;;;5039253;28;20216;-75
2021/07/16 11:45:24;;;;;;;5.32;4.25;;;39.70;47.90;;;;;;5053265;28;20182;-75
2021/07/16 11:47:50;;;;;;;4.10;3.88;;;39.50;48.40;;;;;;5049605;28;20202;-75
2021/07/16 11:50:16;;;;;;;5.32;4.88;;;39.30;49.30;;;;;;5049469;28;20664;-75
2021/07/16 11:52:48;;;;;;;4.63;4.43;;;39.10;49.10;;;;;;5049539;28;20244;-75
2021/07/16 11:55:19;;;;;;;4.97;4.03;;;39.00;49.70;;;;;;5046068;28;20958;-75
2021/07/16 11:58:02;;;;;;;4.53;4.10;;;39.00;49.50;;;;;;5050036;28;20296;-75
2021/07/16 12:00:35;;;;;;;4.22;4.03;;;39.10;49.70;;;;;;5082882;28;20220;-75
2021/07/16 12:03:12;;;;;;;5.38;4.38;;;39.20;49.70;;;;;;5053948;28;20179;-75
2021/07/16 12:05:50;;;;;;;4.15;3.72;;;39.00;49.40;;;;;;5056511;28;20301;-74
2021/07/16 12:08:23;;;;;;;4.63;4.22;;;39.10;49.70;;;;;;5045701;28;20179;-74
2021/07/16 12:11:08;;;;;;;4.30;4.03;;;39.10;49.40;;;;;;5058643;28;20190;-75
2021/07/16 12:13:35;;;;;;;4.50;4.15;;;39.50;47.70;;;;;;5056180;28;20635;-74
2021/07/16 12:16:02;;;;;;;3.70;3.50;;;39.80;49.00;;;;;;5055261;28;20301;-74
2021/07/16 12:18:30;;;;;;;4.28;4.07;;;40.20;48.10;;;;;;5056219;28;20182;-74
2021/07/16 12:20:56;;;;;;;4.50;4.30;;;40.90;47.60;;;;;;5054577;28;20198;-74
2021/07/16 12:23:23;;;;;;;4.20;4.00;;;41.50;48.00;;;;;;5056667;28;20201;-74
2021/07/16 12:26:08;;;;;;;4.15;3.90;;;41.40;47.30;;;;;;5049134;28;20596;-74
2021/07/16 12:28:34;;;;;;;4.63;4.43;;;41.20;46.40;;;;;;5052701;28;20201;-75
2021/07/16 12:31:02;;;;;;;7.43;4.10;;;41.50;47.40;;;;;;5052559;28;20195;-75
2021/07/16 12:33:33;;;;;;;6.03;5.18;;;41.30;46.20;;;;;;5051632;28;20703;-75
2021/07/16 12:35:59;;;;;;;6.75;4.18;;;41.10;46.60;;;;;;5042038;28;20298;-75
2021/07/16 12:38:30;;;;;;;4.15;4.05;;;40.60;46.50;;;;;;5051916;28;20726;-75
2021/07/16 12:41:06;;;;;;;5.53;5.13;;;40.20;48.20;;;;;;5049630;28;20336;-75
2021/07/16 12:43:43;;;;;;;4.88;4.53;;;40.50;46.70;;;;;;5047346;28;20190;-75
2021/07/16 12:46:10;;;;;;;5.35;4.25;;;40.50;46.60;;;;;;5051707;28;20186;-75
2021/07/16 12:48:39;;;;;;;5.28;5.03;;;40.30;46.80;;;;;;5048683;28;20270;-75
2021/07/16 12:51:16;;;;;;;4.82;4.43;;;40.00;47.30;;;;;;5052437;28;20179;-74
2021/07/16 12:53:51;;;;;;;4.50;4.32;;;39.70;46.90;;;;;;5050431;28;20664;-74
2021/07/16 12:56:24;;;;;;;4.15;3.88;;;39.60;48.30;;;;;;5053020;28;20215;-74